Evanston-Uinta County Airport-Burns Field Evanston US
ICAO: KEVW
IATA: EVW
Category: Medium
Scheduled Services: No

Elevation: 7143 ft
TransAlt. 18000 ft.

Airport Communications:
ASOS:120
SALT LAKE CITY CNTR:127.7
CTAF/UNICOM:122.8

KEVW Zoom In..

If you have problems with the map follow the link
https://www.worldairports.se/pages/airport.php?
ICAO=KEVW

Runways:

(A) RW 05 length 7300 ft width 100 ft
---- / hdg 54

(B) RW 23 length 7300 ft width 100 ft
ILS 108.90 / hdg 234

Location; KEVW
Day. 10 / Time. 01.53 Zulu
* Altimeter: 30.12
* Temperature: -07° c. -19.4°f.
* Wind from: 250° Speed 11 kn.
Dewpoint: -11° c.
Visibility: 10 Statute Miles.
Clouds: Clear (automated report).

KEVW 100153Z AUTO 25011KT 10SM CLR M07/M11 A3012 RMK AO2 SLP240 T10671106


Wind From 250°
Speed 11 kn.

 
 
jpsmedia worldairports.se 2019   terms of use